Airfield :
LOGIN :

Register | Disclaimer

   EN    FR    IT 

 










Legend :    VFR   Marginal VFR   IFR   Intensive IFR   Very Intensive IFR
Visi :
Ceiling :
>= 8 km
>= 3000ft
5 to 8 km
1000 to 3000 ft
1500m to 5 km
500 to 1000 ft
800 to 1500m
200 to 500 ft
< 800m
< 200 ft
Symbols :   Thunderstorms  Fog  Heavy snow  Heavy precipitations  Wind > 20 kt
SIGMETs :     Misc.  Thunderstorms  Icing  Turbulence  Mountain Waves  Volcanic Ashes






- Airport Elevation : 670 ft
- IATA code : MSQ


UMMS - Minsk - 2

CURRENT METAR :
  • 191830Z 21004MPS CAVOK 03/M00 Q1012 R88/D NOSIG

EXPIRED METARs :
  • 191800Z 22004MPS CAVOK 03/00 Q1012 R88/D NOSIG
  • 191730Z 21004MPS CAVOK 03/M00 Q1012 R88/CLRD// NOSIG
  • 191700Z 21004MPS CAVOK 03/M00 Q1012 R88/D NOSIG
  • 191630Z 22003MPS CAVOK 03/M00 Q1012 R88/D NOSIG
  • 191600Z 22003MPS 9999 FEW049 03/M00 Q1012 R88/D NOSIG
  • 191530Z 22004MPS 9999 SCT047 04/M00 Q1012 R88/D NOSIG

TAF TAF UMMS
Valid from the 19 at 18:00 until the 20 at 18:00 UTC


191710Z 1918/2018 22006MPS 6000 BKN005 TNM00/2004Z TX05/2012Z
TEMPO 1918/2008 1200 -SHRASN BR BKN003 BKN012CB
TEMPO 2008/2012 2100 -SHRA BKN003 BKN015CB



MET'MAP, your aeronautical weather chart ! - Copyright ORBIFLY December 2007 - Disclaimer

ORBIFLY MET'MAP TEAM :

Programming & Development : Alexandra Zaïnal
Concept & original design : Baudouin d'Aumeries
Assistance for programming : Marc-Olivier Méhu
Technical & hardware support : Manuel Goepfert

Contact : metmap@orbifly.com




SOURCES & CREDITS :

   NOAA